createdAt,value
2023-03-12T00:04:34.706Z,101180.66
2023-03-12T00:09:39.801Z,101180.22
2023-03-12T00:14:41.538Z,101178.06
2023-03-12T00:19:43.282Z,101177.97
2023-03-12T00:24:45.296Z,101173.91
2023-03-12T00:29:49.958Z,101174.56
2023-03-12T00:34:55.545Z,101174.44
2023-03-12T00:39:57.405Z,101174.88
2023-03-12T00:45:01.240Z,101177.03
2023-03-12T00:50:05.582Z,101170.09
2023-03-12T00:55:10.322Z,101166.25
2023-03-12T01:00:15.159Z,101168.88
2023-03-12T01:05:17.210Z,101163.91
2023-03-12T01:10:20.338Z,101162.22
2023-03-12T01:15:24.486Z,101158.59
2023-03-12T01:20:26.225Z,101170.03
2023-03-12T01:25:34.161Z,101166.84
2023-03-12T01:30:41.973Z,101154.94
2023-03-12T01:35:43.766Z,101157.03
2023-03-12T01:40:45.758Z,101152.53
2023-03-12T01:46:18.773Z,101154.94
2023-03-12T01:51:21.493Z,101156.94
2023-03-12T01:56:30.168Z,101157.69
2023-03-12T02:01:32.085Z,101150.75
2023-03-12T02:06:49.477Z,101154.59
2023-03-12T02:11:53.504Z,101147.88
2023-03-12T02:16:55.767Z,101143.75
2023-03-12T02:22:01.886Z,101136.78
2023-03-12T02:27:07.413Z,101135.66
2023-03-12T02:32:18.441Z,101127.91
2023-03-12T02:37:25.208Z,101129.66
2023-03-12T02:42:27.366Z,101127.34
2023-03-12T02:47:31.629Z,101134.91
2023-03-12T02:52:37.967Z,101132.50
2023-03-12T02:57:40.074Z,101121.47
2023-03-12T03:02:45.490Z,101109.56
2023-03-12T03:07:48.472Z,101111.44
2023-03-12T03:12:54.137Z,101105.91
2023-03-12T03:17:55.900Z,101113.59
2023-03-12T03:22:58.352Z,101114.81
2023-03-12T03:28:02.272Z,101120.28
2023-03-12T03:33:06.438Z,101115.88
2023-03-12T03:38:08.663Z,101115.44
2023-03-12T03:43:13.014Z,101114.81
2023-03-12T03:48:18.484Z,101116.84
2023-03-12T03:53:20.685Z,101108.88
2023-03-12T03:58:25.262Z,101112.34
2023-03-12T04:03:27.126Z,101103.72
2023-03-12T04:08:32.954Z,101103.56
2023-03-12T04:13:38.878Z,101106.19
2023-03-12T04:18:47.150Z,101104.09
2023-03-12T04:23:50.169Z,101096.47
2023-03-12T04:28:53.317Z,101088.88
2023-03-12T04:33:57.533Z,101094.56
2023-03-12T04:38:59.961Z,101080.84
2023-03-12T04:44:06.459Z,101072.56
2023-03-12T04:49:10.145Z,101068.06
2023-03-12T04:54:13.764Z,101061.13
2023-03-12T04:59:17.393Z,101056.59
2023-03-12T05:04:23.049Z,101044.03
2023-03-12T05:09:28.329Z,101032.50
2023-03-12T05:14:32.420Z,101038.47
2023-03-12T05:19:36.628Z,101021.47
2023-03-12T05:24:43.661Z,101031.38
2023-03-12T05:29:45.393Z,101029.16
2023-03-12T05:34:47.364Z,101025.59
2023-03-12T05:39:49.118Z,101023.59
2023-03-12T05:44:52.502Z,101007.72
2023-03-12T05:49:56.368Z,101002.38
2023-03-12T05:55:00.774Z,101013.41
2023-03-12T06:00:04.077Z,101005.97
2023-03-12T06:05:14.802Z,101008.22
2023-03-12T06:10:16.978Z,101003.94
2023-03-12T06:15:21.455Z,101008.13
2023-03-12T06:20:30.119Z,100989.41
2023-03-12T06:25:32.090Z,100985.84
2023-03-12T06:30:33.935Z,100995.91
2023-03-12T06:35:35.925Z,100990.22
2023-03-12T06:40:42.874Z,100989.44
2023-03-12T06:45:46.885Z,100993.22
2023-03-12T06:50:48.585Z,100990.16
2023-03-12T06:55:53.410Z,100983.38
2023-03-12T07:00:55.595Z,100971.34
2023-03-12T07:06:00.405Z,100965.94
2023-03-12T07:11:04.219Z,100966.19
2023-03-12T07:16:08.459Z,100967.97
2023-03-12T07:21:10.221Z,100968.59
2023-03-12T07:26:11.934Z,100977.34
2023-03-12T07:31:13.694Z,100963.34
2023-03-12T07:36:17.953Z,100959.78
2023-03-12T07:41:21.985Z,100957.94
2023-03-12T07:46:23.797Z,100954.59
2023-03-12T07:51:25.480Z,100962.16
2023-03-12T07:56:29.483Z,100961.59
2023-03-12T08:01:34.162Z,100960.03
2023-03-12T08:06:37.766Z,100948.66
2023-03-12T08:11:42.616Z,100938.22
2023-03-12T08:16:44.685Z,100929.69
2023-03-12T08:21:50.023Z,100934.69
2023-03-12T08:26:54.389Z,100912.31
2023-03-12T08:32:04.434Z,100895.59
2023-03-12T08:37:07.465Z,100887.66
2023-03-12T08:42:11.540Z,100878.63
2023-03-12T08:47:13.284Z,100880.75
2023-03-12T08:52:15.708Z,100888.09
2023-03-12T08:57:17.603Z,100894.59
2023-03-12T09:02:19.320Z,100888.91
2023-03-12T09:07:24.073Z,100878.06
2023-03-12T09:12:28.092Z,100869.91
2023-03-12T09:17:31.000Z,100859.09
2023-03-12T09:22:32.834Z,100829.34
2023-03-12T09:27:47.592Z,100832.56
2023-03-12T09:32:51.906Z,100818.09
2023-03-12T09:37:53.588Z,100799.19
2023-03-12T09:43:00.800Z,100786.53
2023-03-12T09:48:07.835Z,100783.72
2023-03-12T09:53:21.095Z,100777.06
2023-03-12T09:58:36.384Z,100760.88
2023-03-12T10:03:41.149Z,100742.63
2023-03-12T10:09:03.039Z,100744.44
2023-03-12T10:14:36.736Z,100746.94
2023-03-12T10:20:05.633Z,100760.22
2023-03-12T10:25:41.412Z,100749.47
2023-03-12T10:30:48.439Z,100740.72
2023-03-12T10:35:55.222Z,100724.72
2023-03-12T10:41:02.488Z,100714.22
2023-03-12T10:46:31.650Z,100724.38
2023-03-12T10:52:01.130Z,100703.75
2023-03-12T10:57:03.647Z,100706.16
2023-03-12T11:02:32.745Z,100725.13
2023-03-12T11:07:35.466Z,100736.38
2023-03-12T11:12:39.841Z,100725.66
2023-03-12T11:17:43.899Z,100709.78
2023-03-12T11:22:51.165Z,100708.41
2023-03-12T11:28:03.816Z,100700.88
2023-03-12T11:33:06.249Z,100702.09
2023-03-12T11:38:35.583Z,100690.91
2023-03-12T11:43:51.802Z,100671.97
2023-03-12T11:49:03.584Z,100667.22
2023-03-12T11:54:08.308Z,100644.75
2023-03-12T11:59:20.290Z,100631.22
2023-03-12T12:04:46.716Z,100615.13
2023-03-12T12:09:57.089Z,100609.13
2023-03-12T12:15:37.734Z,100609.13
2023-03-12T12:21:01.451Z,100598.41
2023-03-12T12:26:10.388Z,100585.19
2023-03-12T12:31:31.399Z,100564.63
2023-03-12T12:36:35.041Z,100570.88
2023-03-12T12:41:51.486Z,100550.59
2023-03-12T12:47:05.440Z,100546.84
2023-03-12T12:52:09.048Z,100532.50
2023-03-12T12:57:32.386Z,100551.69
2023-03-12T13:02:34.551Z,100520.31
2023-03-12T13:07:38.542Z,100510.28
2023-03-12T13:12:49.569Z,100492.91
2023-03-12T13:18:08.306Z,100498.88
2023-03-12T13:23:29.153Z,100507.66
2023-03-12T13:29:05.956Z,100499.06
2023-03-12T13:34:20.131Z,100520.00
2023-03-12T13:39:36.543Z,100495.28
2023-03-12T13:44:40.141Z,100484.03
2023-03-12T13:49:43.342Z,100499.34
2023-03-12T13:54:56.793Z,100483.31
2023-03-12T14:00:01.145Z,100506.00
2023-03-12T14:05:14.017Z,100479.88
2023-03-12T14:10:27.565Z,100484.88
2023-03-12T14:15:46.977Z,100471.09
2023-03-12T14:21:02.978Z,100461.78
2023-03-12T14:26:08.562Z,100466.09
2023-03-12T14:31:21.534Z,100459.97
2023-03-12T14:37:03.109Z,100447.84
2023-03-12T14:42:11.944Z,100438.06
2023-03-12T14:47:19.974Z,100454.72
2023-03-12T14:52:27.468Z,100449.31
2023-03-12T14:57:29.278Z,100451.94
2023-03-12T15:02:33.822Z,100447.03
2023-03-12T15:07:39.554Z,100451.63
2023-03-12T15:12:44.845Z,100452.44
2023-03-12T15:17:49.630Z,100448.41
2023-03-12T15:22:55.922Z,100447.53
2023-03-12T15:28:06.620Z,100442.63
2023-03-12T15:33:15.523Z,100440.53
2023-03-12T15:38:17.633Z,100434.66
2023-03-12T15:43:20.918Z,100441.16
2023-03-12T15:48:36.546Z,100442.63
2023-03-12T15:53:40.582Z,100438.41
2023-03-12T15:58:44.510Z,100438.50
2023-03-12T16:03:48.576Z,100433.75
2023-03-12T16:08:53.229Z,100442.88
2023-03-12T16:14:19.560Z,100441.16
2023-03-12T16:19:23.193Z,100439.88
2023-03-12T16:24:27.249Z,100429.66
2023-03-12T16:29:37.387Z,100432.22
2023-03-12T16:34:42.092Z,100439.41
2023-03-12T16:39:46.362Z,100421.47
2023-03-12T16:44:48.410Z,100424.38
2023-03-12T16:49:50.113Z,100413.22
2023-03-12T16:54:53.988Z,100411.03
2023-03-12T16:59:58.024Z,100397.19
2023-03-12T17:05:02.103Z,100415.38
2023-03-12T17:10:07.573Z,100422.06
2023-03-12T17:15:15.444Z,100428.75
2023-03-12T17:20:21.322Z,100424.31
2023-03-12T17:25:26.469Z,100427.47
2023-03-12T17:30:34.287Z,100433.16
2023-03-12T17:35:36.611Z,100425.38
2023-03-12T17:40:43.472Z,100432.31
2023-03-12T17:45:47.997Z,100422.56
2023-03-12T17:50:53.155Z,100440.16
2023-03-12T17:55:57.186Z,100437.00
2023-03-12T18:01:03.955Z,100425.69
2023-03-12T18:06:05.957Z,100438.81
2023-03-12T18:11:07.617Z,100445.78
2023-03-12T18:16:09.484Z,100438.50
2023-03-12T18:21:11.237Z,100443.81
2023-03-12T18:26:15.230Z,100443.13
2023-03-12T18:31:19.378Z,100432.50
2023-03-12T18:36:25.724Z,100436.84
2023-03-12T18:41:31.264Z,100459.28
2023-03-12T18:46:37.935Z,100461.13
2023-03-12T18:51:42.752Z,100469.44
2023-03-12T18:56:44.626Z,100478.22
2023-03-12T19:01:49.408Z,100467.97
2023-03-12T19:06:52.017Z,100455.16
2023-03-12T19:11:54.091Z,100452.50
2023-03-12T19:16:58.092Z,100447.19
2023-03-12T19:22:04.605Z,100442.22
2023-03-12T19:27:11.492Z,100432.25
2023-03-12T19:32:15.788Z,100428.91
2023-03-12T19:37:17.757Z,100426.25
2023-03-12T19:42:19.581Z,100424.28
2023-03-12T19:47:22.365Z,100420.78
2023-03-12T19:52:24.146Z,100424.28
2023-03-12T19:57:26.052Z,100416.66
2023-03-12T20:02:32.807Z,100417.63
2023-03-12T20:07:36.964Z,100419.31
2023-03-12T20:12:42.298Z,100426.25
2023-03-12T20:17:46.299Z,100420.28
2023-03-12T20:22:50.253Z,100419.13
2023-03-12T20:27:52.076Z,100424.63
2023-03-12T20:32:56.199Z,100416.81
2023-03-12T20:37:58.747Z,100397.03
2023-03-12T20:43:04.694Z,100402.19
2023-03-12T20:48:09.743Z,100396.69
2023-03-12T20:53:13.561Z,100388.41
2023-03-12T20:58:15.301Z,100389.38
2023-03-12T21:03:19.197Z,100389.06
2023-03-12T21:08:23.825Z,100397.06
2023-03-12T21:13:30.420Z,100362.81
2023-03-12T21:18:32.171Z,100371.44
2023-03-12T21:23:38.907Z,100379.94
2023-03-12T21:28:40.737Z,100359.19
2023-03-12T21:33:45.325Z,100366.47
2023-03-12T21:38:52.212Z,100351.53
2023-03-12T21:43:53.978Z,100343.53
2023-03-12T21:48:58.548Z,100346.03
2023-03-12T21:54:02.985Z,100341.75
2023-03-12T21:59:04.707Z,100341.41
2023-03-12T22:04:08.776Z,100326.13
2023-03-12T22:09:10.583Z,100321.97
2023-03-12T22:14:12.304Z,100308.47
2023-03-12T22:19:14.027Z,100306.47
2023-03-12T22:24:18.048Z,100303.97
2023-03-12T22:29:19.696Z,100293.47
2023-03-12T22:34:21.478Z,100292.97
2023-03-12T22:39:23.240Z,100278.50
2023-03-12T22:44:24.942Z,100282.81
2023-03-12T22:49:29.024Z,100274.50
2023-03-12T22:54:30.660Z,100258.72
2023-03-12T22:59:35.082Z,100247.91
2023-03-12T23:04:39.498Z,100244.25
2023-03-12T23:09:41.463Z,100236.94
2023-03-12T23:14:45.736Z,100223.44
2023-03-12T23:19:52.428Z,100205.84
2023-03-12T23:24:58.903Z,100206.50
2023-03-12T23:30:03.536Z,100194.84
2023-03-12T23:35:07.705Z,100193.66
2023-03-12T23:40:16.889Z,100181.00
2023-03-12T23:45:18.556Z,100186.16
2023-03-12T23:50:20.268Z,100161.69
2023-03-12T23:55:22.025Z,100162.66
